Flight Track Log - Related Links

Times and Time Zones

All times are in EDT time to prevent confusion due to time zone crossing. See the DAL2389 flight status page for this flight to view local times or setup timezone preferences in your user account.

Time Position Orientation Groundspeed Altitude Reporting Facility
EDT Latitude Longitude Course Direction KTS MPH feet Rate Location/Type
Tue 08:42:37 PM 44.8225 -93.2233 120° Southeast 159 183 2,900  Level Minneapolis Center
Tue 08:43:39 PM 44.7689 -93.1564 138° Southeast 254 292 5,300 2,806 Climbing Minneapolis Center
Tue 08:44:00 PM 44.6509 -92.8724 141° Southeast  Level Estimated
Tue 08:44:41 PM 44.7192 -93.0706 129° Southeast 277 319 8,700  Level Minneapolis Center
Tue 08:45:00 PM 44.5737 -92.7566 137° Southeast  Level Estimated
Tue 08:45:43 PM 44.6653 -92.9817 130° Southeast 297 342 11,400  Level Minneapolis Center
Tue 08:46:00 PM 44.4963 -92.6411 133° Southeast  Level Estimated
Tue 08:46:45 PM 44.6167 -92.9011 130° Southeast 331 381 12,900  Level Minneapolis Center
Tue 08:47:00 PM 44.4188 -92.5259 120° Southeast  Level Estimated
Tue 08:47:47 PM 44.5344 -92.7644 130° Southeast 383 441 15,700  Level Minneapolis Center
Tue 08:48:49 PM 44.4478 -92.6233 131° Southeast 396 456 18,700 2,226 Climbing Minneapolis Center
Tue 08:49:51 PM 44.3756 -92.5042 130° Southeast 400 460 20,300 1,632 Climbing Minneapolis Center
Tue 08:51:05 PM 44.3058 -92.3700 126° Southeast 422 486 22,400 1,752 Climbing Minneapolis Center
Tue 08:52:08 PM 44.2306 -92.1925 121° Southeast 441 507 24,300 2,016 Climbing Minneapolis Center
Tue 08:53:10 PM 44.1667 -92.0453 121° Southeast 445 512 26,600 1,500 Climbing Minneapolis Center
Tue 08:54:12 PM 44.0700 -91.8828 130° Southeast 450 518 27,400 1,113 Climbing Minneapolis Center
Tue 08:55:14 PM 43.9781 -91.7528 134° Southeast 467 537 28,900 1,355 Climbing Minneapolis Center
Tue 08:56:16 PM 43.8889 -91.6217 133° Southeast 473 544 30,200 1,694 Climbing Minneapolis Center
Tue 08:57:18 PM 43.8017 -91.4875 132° Southeast 473 544 32,400 1,355 Climbing Minneapolis Center
Tue 08:58:20 PM 43.7175 -91.3625 133° Southeast 461 531 33,000 290 Climbing Minneapolis Center
Tue 08:59:22 PM 43.6350 -91.2428 134° Southeast 445 512 33,000  Level Minneapolis Center
Tue 09:00:24 PM 43.5339 -91.0925 133° Southeast 446 513 33,000  Level Minneapolis Center
Tue 09:01:29 PM 43.4486 -90.9686 133° Southeast 448 516 33,000  Level Minneapolis Center
Tue 09:02:31 PM 43.3633 -90.8444 133° Southeast 448 516 33,000  Level Minneapolis Center
Tue 09:03:33 PM 43.2783 -90.7217 134° Southeast 446 513 33,000  Level Minneapolis Center
Tue 09:04:35 PM 43.1767 -90.5753 134° Southeast 445 512 33,000  Level Minneapolis Center
Tue 09:05:05 PM 43.1442 -90.5283 133° Southeast 443 510 33,000  Level Chicago Center
Tue 09:06:07 PM 43.0611 -90.4075 133° Southeast 439 505 33,000  Level Chicago Center
Tue 09:07:09 PM 42.9778 -90.2897 134° Southeast 435 501 33,000  Level Chicago Center
Tue 09:08:11 PM 42.8789 -90.1469 133° Southeast 434 499 33,000  Level Chicago Center
Tue 09:09:13 PM 42.7944 -90.0292 134° Southeast 437 503 33,000  Level Chicago Center
Tue 09:10:15 PM 42.7111 -89.9128 134° Southeast 434 499 33,000  Level Chicago Center
Tue 09:11:17 PM 42.6153 -89.7781 134° Southeast 436 502 33,000  Level Chicago Center
Tue 09:12:19 PM 42.5306 -89.6597 134° Southeast 437 503 33,000  Level Chicago Center
Tue 09:13:21 PM 42.4456 -89.5419 134° Southeast 438 504 33,000  Level Chicago Center
Tue 09:14:23 PM 42.3606 -89.4250 135° Southeast 438 504 33,000  Level Chicago Center
Tue 09:15:25 PM 42.2756 -89.3069 134° Southeast 439 505 33,000  Level Chicago Center
Tue 09:16:27 PM 42.1761 -89.1678 134° Southeast 440 506 33,000  Level Chicago Center
Tue 09:17:28 PM 42.0903 -89.0525 135° Southeast 438 504 33,000  Level Chicago Center
Tue 09:18:30 PM 42.0094 -88.9422 135° Southeast 440 506 33,000  Level Chicago Center
Tue 09:19:32 PM 41.9244 -88.8258 134° Southeast 440 506 33,000  Level Chicago Center
Tue 09:20:34 PM 41.8225 -88.6869 135° Southeast 438 504 33,000  Level Chicago Center
Tue 09:21:36 PM 41.7364 -88.5717 135° Southeast 440 506 33,000 -242 Level Chicago Center
Tue 09:22:38 PM 41.6494 -88.4558 135° Southeast 443 510 32,500 -683 Descending Chicago Center
Tue 09:23:39 PM 41.5617 -88.3411 136° Southeast 446 513 31,600 -927 Descending Chicago Center
Tue 09:24:41 PM 41.4600 -88.2503 146° Southeast 448 516 30,600 -1,065 Descending Chicago Center
Tue 09:25:43 PM 41.3342 -88.1500 149° Southeast 455 524 29,400 -780 Descending Chicago Center
Tue 09:26:44 PM 41.2267 -88.0644 149° Southeast 462 532 29,000 -195 Descending Chicago Center
Tue 09:27:46 PM 41.1183 -87.9772 149° Southeast 461 531 29,000  Level Chicago Center
Tue 09:28:48 PM 41.0189 -87.8753 142° Southeast 459 528 29,000 -49 Level Chicago Center
Tue 09:29:49 PM 40.9253 -87.7625 138° Southeast 459 528 28,900 -585 Descending Chicago Center
Tue 09:30:51 PM 40.8139 -87.6286 138° Southeast 455 524 27,800 -1,016 Descending Chicago Center
Tue 09:31:53 PM 40.7217 -87.5211 139° Southeast 448 516 26,800 -1,073 Descending Chicago Center
Tue 09:32:54 PM 40.6308 -87.4158 139° Southeast 440 506 25,600 -1,268 Descending Chicago Center
Tue 09:33:56 PM 40.5414 -87.3122 139° Southeast 433 498 24,200 -1,902 Descending Chicago Center
Tue 09:34:57 PM 40.4419 -87.1975 139° Southeast 428 493 21,700 -2,488 Descending Chicago Center
Tue 09:35:59 PM 40.3589 -87.0994 138° Southeast 407 468 19,100 -2,537 Descending Chicago Center
Tue 09:37:00 PM 40.2767 -87.0056 139° Southeast 395 455 16,500 -2,488 Descending Chicago Center
Tue 09:38:02 PM 40.1981 -86.9133 138° Southeast 384 442 14,000 -1,887 Descending Chicago Center
Tue 09:39:04 PM 40.1269 -86.8217 135° Southeast 366 421 12,600 -1,805 Descending Chicago Center
Tue 09:40:05 PM 40.0422 -86.7597 151° Southeast 358 412 10,300 -1,268 Descending Chicago Center
Tue 09:41:07 PM 39.9508 -86.7128 159° South 357 411 10,000 -683 Descending Chicago Center
Tue 09:42:08 PM 39.8567 -86.6656 159° South 303 349 8,900 -1,357 Descending Chicago Center
Tue 09:43:02 PM 39.7833 -86.6333 161° South 286 329 7,400 -2,167 Descending Indianapolis TRACON
Tue 09:43:56 PM 39.7333 -86.5667 134° Southeast 278 320 5,000 -2,301 Descending Indianapolis TRACON
Tue 09:44:15 PM 39.7244 -86.5583 144° Southeast 279 321 4,600 -1,425 Descending Indianapolis Center
Tue 09:45:16 PM 39.6706 -86.4986 140° Southeast 269 310 3,100 -787 Descending Indianapolis Center
Tue 09:46:17 PM 39.6222 -86.4436 139° Southeast 216 249 3,000 -98 Descending Indianapolis Center

Login

Don't have an account? Register now (free) for customized features, flight alerts, and more!